createdAt,value
2018-12-29T00:00:10.741Z,21.47
2018-12-29T00:05:03.096Z,19.87
2018-12-29T00:09:56.206Z,21.13
2018-12-29T00:14:54.936Z,22.73
2018-12-29T00:19:43.068Z,21.90
2018-12-29T00:24:35.585Z,20.57
2018-12-29T00:29:28.414Z,20.90
2018-12-29T00:34:21.205Z,22.87
2018-12-29T00:49:08.224Z,21.83
2018-12-29T00:54:00.348Z,21.87
2018-12-29T00:58:52.537Z,19.13
2018-12-29T01:03:44.687Z,19.20
2018-12-29T01:08:36.746Z,20.10
2018-12-29T01:13:29.056Z,20.37
2018-12-29T01:18:21.265Z,19.50
2018-12-29T01:23:13.506Z,20.53
2018-12-29T01:28:05.653Z,21.17
2018-12-29T01:32:59.597Z,19.60
2018-12-29T01:37:52.138Z,20.67
2018-12-29T01:42:45.299Z,20.80
2018-12-29T01:47:37.887Z,21.47
2018-12-29T01:52:31.600Z,22.13
2018-12-29T01:57:24.878Z,21.10
2018-12-29T02:02:17.955Z,21.60
2018-12-29T02:07:11.722Z,21.03
2018-12-29T02:12:05.111Z,20.30
2018-12-29T02:16:58.688Z,21.30
2018-12-29T02:21:55.016Z,22.43
2018-12-29T02:26:48.365Z,21.00
2018-12-29T02:31:42.918Z,20.90
2018-12-29T02:36:36.497Z,20.57
2018-12-29T02:41:33.654Z,19.60
2018-12-29T02:46:27.725Z,21.20
2018-12-29T02:51:21.761Z,20.30
2018-12-29T02:56:15.832Z,21.83
2018-12-29T03:01:10.386Z,21.27
2018-12-29T03:06:02.739Z,20.37
2018-12-29T03:10:56.677Z,21.80
2018-12-29T03:15:50.804Z,20.53
2018-12-29T03:20:43.473Z,21.97
2018-12-29T03:25:36.062Z,22.27
2018-12-29T03:30:28.945Z,22.70
2018-12-29T03:35:21.536Z,23.43
2018-12-29T03:40:17.035Z,23.23
2018-12-29T03:45:09.634Z,23.50
2018-12-29T03:50:02.228Z,23.93
2018-12-29T03:54:55.139Z,21.70
2018-12-29T03:59:47.612Z,22.67
2018-12-29T04:04:40.169Z,21.17
2018-12-29T04:14:31.689Z,22.47
2018-12-29T04:19:25.048Z,21.73
2018-12-29T04:24:17.804Z,23.00
2018-12-29T04:29:10.259Z,21.43
2018-12-29T04:34:02.833Z,22.10
2018-12-29T04:38:55.767Z,22.10
2018-12-29T04:43:48.544Z,21.17
2018-12-29T04:48:42.874Z,20.93
2018-12-29T04:53:35.642Z,20.40
2018-12-29T04:58:32.017Z,21.33
2018-12-29T05:03:24.903Z,21.77
2018-12-29T05:08:17.775Z,21.57
2018-12-29T05:13:14.626Z,21.30
2018-12-29T05:18:11.534Z,21.63
2018-12-29T05:23:04.618Z,21.93
2018-12-29T05:27:57.267Z,21.73
2018-12-29T05:32:50.006Z,22.70
2018-12-29T05:37:45.461Z,22.17
2018-12-29T05:42:40.071Z,23.03
2018-12-29T05:47:34.099Z,23.03
2018-12-29T05:52:31.829Z,24.00
2018-12-29T05:57:30.204Z,24.33
2018-12-29T06:02:22.692Z,25.43
2018-12-29T06:07:15.319Z,25.23
2018-12-29T06:12:08.157Z,25.97
2018-12-29T06:17:00.982Z,24.80
2018-12-29T06:21:53.600Z,24.67
2018-12-29T06:26:50.786Z,25.40
2018-12-29T06:31:43.607Z,25.27
2018-12-29T06:36:41.625Z,28.03
2018-12-29T06:41:34.718Z,33.40
2018-12-29T06:46:27.203Z,34.47
2018-12-29T06:51:20.100Z,74.93
2018-12-29T06:56:12.594Z,33.67
2018-12-29T07:01:05.194Z,27.07
2018-12-29T07:05:57.885Z,46.93
2018-12-29T07:10:50.529Z,41.77
2018-12-29T07:15:43.234Z,27.13
2018-12-29T07:20:35.866Z,26.23
2018-12-29T07:25:28.131Z,26.23
2018-12-29T07:30:21.883Z,24.13
2018-12-29T07:35:14.455Z,25.53
2018-12-29T07:40:07.217Z,25.83
2018-12-29T07:45:02.263Z,25.87
2018-12-29T07:54:56.147Z,25.97
2018-12-29T08:04:48.239Z,26.67
2018-12-29T08:09:40.828Z,26.70
2018-12-29T08:14:33.800Z,25.50
2018-12-29T08:19:26.221Z,33.33
2018-12-29T08:24:18.926Z,31.57
2018-12-29T08:29:11.280Z,31.17
2018-12-29T08:34:04.789Z,29.53
2018-12-29T08:38:57.504Z,28.87
2018-12-29T08:43:49.969Z,31.20
2018-12-29T08:48:42.335Z,30.53
2018-12-29T08:53:34.904Z,30.33
2018-12-29T08:58:27.310Z,29.93
2018-12-29T09:03:20.522Z,33.07
2018-12-29T09:08:12.487Z,28.80
2018-12-29T09:13:05.618Z,28.47
2018-12-29T09:17:58.009Z,25.97
2018-12-29T09:22:56.625Z,27.17
2018-12-29T09:39:22.020Z,26.80
2018-12-29T09:56:24.578Z,25.57
2018-12-29T10:01:17.235Z,25.63
2018-12-29T10:06:09.550Z,24.73
2018-12-29T10:11:01.870Z,24.17
2018-12-29T10:15:54.030Z,26.60
2018-12-29T10:20:46.471Z,25.17
2018-12-29T10:25:38.605Z,25.67
2018-12-29T10:30:30.757Z,27.00
2018-12-29T10:35:23.113Z,25.60
2018-12-29T10:40:15.439Z,22.30
2018-12-29T10:45:07.746Z,22.07
2018-12-29T10:49:59.861Z,22.67
2018-12-29T10:54:52.113Z,21.67
2018-12-29T10:59:44.306Z,21.10
2018-12-29T11:04:36.507Z,21.90
2018-12-29T11:09:28.478Z,21.53
2018-12-29T11:14:20.669Z,22.30
2018-12-29T11:19:12.576Z,21.40
2018-12-29T11:24:05.105Z,21.17
2018-12-29T11:28:57.422Z,23.20
2018-12-29T11:33:49.462Z,21.73
2018-12-29T11:38:41.593Z,21.67
2018-12-29T11:43:33.638Z,22.50
2018-12-29T11:48:25.941Z,27.77
2018-12-29T11:53:18.187Z,22.83
2018-12-29T11:58:10.737Z,21.10
2018-12-29T12:03:03.177Z,23.63
2018-12-29T12:07:55.562Z,22.23
2018-12-29T12:12:48.044Z,22.40
2018-12-29T12:17:40.370Z,21.37
2018-12-29T12:22:35.584Z,23.10
2018-12-29T12:27:33.770Z,26.20
2018-12-29T12:32:26.452Z,27.50
2018-12-29T12:37:20.364Z,23.97
2018-12-29T12:42:27.315Z,24.13
2018-12-29T12:47:18.943Z,23.90
2018-12-29T12:52:11.457Z,22.93
2018-12-29T12:57:03.652Z,23.43
2018-12-29T13:01:56.110Z,21.77
2018-12-29T13:06:50.186Z,22.80
2018-12-29T13:11:42.237Z,22.27
2018-12-29T13:16:34.746Z,21.83
2018-12-29T13:21:27.278Z,22.23
2018-12-29T13:26:19.628Z,25.00
2018-12-29T13:31:12.132Z,26.43
2018-12-29T13:36:06.712Z,24.10
2018-12-29T13:40:59.319Z,24.00
2018-12-29T13:45:51.388Z,24.50
2018-12-29T13:50:43.466Z,25.23
2018-12-29T13:55:36.049Z,23.73
2018-12-29T14:00:28.251Z,23.10
2018-12-29T14:05:20.324Z,23.47
2018-12-29T14:10:12.849Z,23.50
2018-12-29T14:15:04.976Z,32.17
2018-12-29T14:19:57.241Z,24.43
2018-12-29T14:24:49.834Z,22.97
2018-12-29T14:29:42.158Z,22.87
2018-12-29T14:34:34.778Z,26.40
2018-12-29T14:39:27.556Z,37.90
2018-12-29T14:44:20.115Z,27.27
2018-12-29T14:49:12.683Z,21.47
2018-12-29T14:54:05.030Z,20.37
2018-12-29T14:58:57.406Z,21.93
2018-12-29T15:03:49.899Z,21.17
2018-12-29T15:08:41.985Z,23.10
2018-12-29T15:13:34.733Z,23.20
2018-12-29T15:18:27.105Z,23.40
2018-12-29T15:23:19.620Z,23.03
2018-12-29T15:28:12.350Z,25.10
2018-12-29T15:33:04.834Z,24.20
2018-12-29T15:37:58.523Z,25.27
2018-12-29T15:42:50.958Z,25.63
2018-12-29T15:47:43.553Z,24.83
2018-12-29T15:52:35.827Z,28.67
2018-12-29T15:57:29.798Z,25.53
2018-12-29T16:02:21.870Z,27.73
2018-12-29T16:07:14.213Z,24.23
2018-12-29T16:12:06.313Z,21.70
2018-12-29T16:16:58.948Z,24.63
2018-12-29T16:21:51.038Z,23.27
2018-12-29T16:26:43.879Z,25.60
2018-12-29T16:31:36.391Z,23.47
2018-12-29T16:36:30.088Z,25.30
2018-12-29T16:41:22.509Z,25.50
2018-12-29T16:46:17.131Z,24.20
2018-12-29T16:51:11.515Z,22.90
2018-12-29T16:56:04.240Z,22.87
2018-12-29T17:00:56.571Z,24.40
2018-12-29T17:05:48.774Z,23.50
2018-12-29T17:10:41.347Z,21.93
2018-12-29T17:15:33.623Z,21.17
2018-12-29T17:20:26.423Z,22.00
2018-12-29T17:25:19.032Z,26.67
2018-12-29T17:30:14.747Z,22.20
2018-12-29T17:35:08.950Z,22.37
2018-12-29T17:40:02.190Z,22.70
2018-12-29T17:45:14.027Z,22.63
2018-12-29T17:50:15.220Z,22.63
2018-12-29T17:55:09.409Z,21.80
2018-12-29T18:00:02.011Z,22.37
2018-12-29T18:04:54.417Z,20.70
2018-12-29T18:09:47.934Z,21.93
2018-12-29T18:14:40.149Z,22.53
2018-12-29T18:19:34.256Z,22.27
2018-12-29T18:24:28.416Z,23.17
2018-12-29T18:29:22.929Z,24.50
2018-12-29T18:34:15.814Z,26.33
2018-12-29T18:39:08.314Z,24.97
2018-12-29T18:44:01.098Z,24.83
2018-12-29T18:48:55.172Z,32.47
2018-12-29T18:53:47.610Z,24.70
2018-12-29T18:58:40.262Z,28.73
2018-12-29T19:03:34.007Z,27.43
2018-12-29T19:08:27.043Z,26.87
2018-12-29T19:13:19.420Z,26.17
2018-12-29T19:18:16.764Z,25.97
2018-12-29T19:23:11.693Z,24.20
2018-12-29T19:28:03.738Z,23.67
2018-12-29T19:32:59.734Z,23.07
2018-12-29T19:37:53.469Z,25.47
2018-12-29T19:42:49.116Z,25.77
2018-12-29T19:47:41.950Z,24.20
2018-12-29T19:52:34.588Z,23.80
2018-12-29T19:57:28.759Z,23.07
2018-12-29T20:02:21.400Z,23.80
2018-12-29T20:07:14.304Z,22.77
2018-12-29T20:12:14.380Z,21.33
2018-12-29T20:17:08.780Z,20.80
2018-12-29T20:22:00.937Z,18.17
2018-12-29T20:26:54.665Z,18.93
2018-12-29T20:31:47.307Z,16.47
2018-12-29T20:36:39.947Z,16.00
2018-12-29T20:41:32.724Z,15.77
2018-12-29T20:46:26.342Z,14.83
2018-12-29T20:51:19.104Z,13.73
2018-12-29T20:56:12.046Z,14.10
2018-12-29T21:01:04.169Z,16.57
2018-12-29T21:05:56.405Z,15.70
2018-12-29T21:10:49.421Z,15.03
2018-12-29T21:15:42.141Z,15.87
2018-12-29T21:20:35.951Z,16.70
2018-12-29T21:25:27.849Z,14.80
2018-12-29T21:30:20.671Z,15.43
2018-12-29T21:35:13.150Z,17.10
2018-12-29T21:40:06.045Z,16.17
2018-12-29T21:45:22.787Z,15.07
2018-12-29T21:50:25.015Z,15.53
2018-12-29T22:00:09.688Z,15.27
2018-12-29T22:05:01.622Z,14.30
2018-12-29T22:09:53.937Z,14.93
2018-12-29T22:14:46.152Z,13.10
2018-12-29T22:19:38.620Z,30.77
2018-12-29T22:24:31.169Z,14.27
2018-12-29T22:29:26.948Z,14.47
2018-12-29T22:34:19.593Z,14.03
2018-12-29T22:39:14.337Z,13.43
2018-12-29T22:44:07.990Z,14.20
2018-12-29T22:49:00.162Z,14.57
2018-12-29T22:53:52.646Z,14.23
2018-12-29T22:58:45.892Z,13.87
2018-12-29T23:03:38.774Z,14.40
2018-12-29T23:08:33.445Z,14.57
2018-12-29T23:13:26.263Z,15.43
2018-12-29T23:18:19.917Z,15.60
2018-12-29T23:23:13.273Z,14.67
2018-12-29T23:28:05.553Z,14.87
2018-12-29T23:32:58.139Z,15.20
2018-12-29T23:37:50.562Z,16.73
2018-12-29T23:42:42.854Z,16.60
2018-12-29T23:47:35.470Z,17.83
2018-12-29T23:52:27.767Z,16.90
2018-12-29T23:57:20.321Z,18.13
